Terminal Aerodrome Forecast
Issued by NWS Tuscon, AZ

Home | Current Version | Previous Version | Text Only | Print | Product List | Glossary On
Versions: 1 2 3 4 5 6 7 8 9 10 11 12 13 14 15
000
FTUS45 KTWC 072337
TAFDUG
TAF
KDUG 072337Z 0800/0824 26011KT P6SM SCT080 BKN250
     FM080300 35008KT P6SM FEW080 BKN200
     FM080700 VRB05KT P6SM SCT250
     FM081900 22018G22KT P6SM VCSH SCT060 BKN160=

USA.gov is the U.S. government's official web portal to all federal, state and local government web resources and services.